sensor_id;sensor_type;location;lat;lon;timestamp;P1;durP1;ratioP1;P2;durP2;ratioP2
26946;SDS011;14501;52.282;10.560;2023-08-20T00:01:05;39.00;;;28.25;;
26946;SDS011;14501;52.282;10.560;2023-08-20T00:03:32;38.40;;;28.02;;
26946;SDS011;14501;52.282;10.560;2023-08-20T00:05:58;40.25;;;29.85;;
26946;SDS011;14501;52.282;10.560;2023-08-20T00:08:24;40.10;;;28.45;;
26946;SDS011;14501;52.282;10.560;2023-08-20T00:10:50;42.47;;;28.98;;
26946;SDS011;14501;52.282;10.560;2023-08-20T00:13:15;43.65;;;29.67;;
26946;SDS011;14501;52.282;10.560;2023-08-20T00:15:41;43.88;;;29.30;;
26946;SDS011;14501;52.282;10.560;2023-08-20T00:18:07;47.20;;;30.77;;
26946;SDS011;14501;52.282;10.560;2023-08-20T00:20:33;46.13;;;31.10;;
26946;SDS011;14501;52.282;10.560;2023-08-20T00:22:59;52.33;;;33.55;;
26946;SDS011;14501;52.282;10.560;2023-08-20T00:25:25;51.85;;;33.85;;
26946;SDS011;14501;52.282;10.560;2023-08-20T00:27:50;52.60;;;32.72;;
26946;SDS011;14501;52.282;10.560;2023-08-20T00:30:16;50.15;;;32.15;;
26946;SDS011;14501;52.282;10.560;2023-08-20T00:32:42;50.30;;;31.65;;
26946;SDS011;14501;52.282;10.560;2023-08-20T00:35:08;43.58;;;30.52;;
26946;SDS011;14501;52.282;10.560;2023-08-20T00:37:33;54.35;;;32.00;;
26946;SDS011;14501;52.282;10.560;2023-08-20T00:40:00;46.20;;;32.15;;
26946;SDS011;14501;52.282;10.560;2023-08-20T00:42:26;51.70;;;31.88;;
26946;SDS011;14501;52.282;10.560;2023-08-20T00:44:52;50.38;;;32.90;;
26946;SDS011;14501;52.282;10.560;2023-08-20T00:47:18;48.15;;;31.63;;
26946;SDS011;14501;52.282;10.560;2023-08-20T00:49:44;52.25;;;31.70;;
26946;SDS011;14501;52.282;10.560;2023-08-20T00:52:11;55.67;;;30.70;;
26946;SDS011;14501;52.282;10.560;2023-08-20T00:54:41;42.17;;;28.63;;
26946;SDS011;14501;52.282;10.560;2023-08-20T00:57:10;44.25;;;29.55;;
26946;SDS011;14501;52.282;10.560;2023-08-20T00:59:39;45.50;;;29.30;;
26946;SDS011;14501;52.282;10.560;2023-08-20T01:02:05;42.15;;;28.83;;
26946;SDS011;14501;52.282;10.560;2023-08-20T01:04:31;38.03;;;27.77;;
26946;SDS011;14501;52.282;10.560;2023-08-20T01:09:43;47.63;;;28.42;;
26946;SDS011;14501;52.282;10.560;2023-08-20T01:12:31;47.33;;;28.92;;
26946;SDS011;14501;52.282;10.560;2023-08-20T01:15:00;42.55;;;28.35;;
26946;SDS011;14501;52.282;10.560;2023-08-20T01:17:26;43.22;;;28.50;;
26946;SDS011;14501;52.282;10.560;2023-08-20T01:19:52;43.20;;;28.08;;
26946;SDS011;14501;52.282;10.560;2023-08-20T01:22:35;39.55;;;28.17;;
26946;SDS011;14501;52.282;10.560;2023-08-20T01:25:18;44.13;;;27.98;;
26946;SDS011;14501;52.282;10.560;2023-08-20T01:30:41;52.13;;;30.88;;
26946;SDS011;14501;52.282;10.560;2023-08-20T01:33:09;46.00;;;29.58;;
26946;SDS011;14501;52.282;10.560;2023-08-20T01:35:35;51.55;;;31.63;;
26946;SDS011;14501;52.282;10.560;2023-08-20T01:38:01;45.80;;;31.70;;
26946;SDS011;14501;52.282;10.560;2023-08-20T01:40:26;49.75;;;31.02;;
26946;SDS011;14501;52.282;10.560;2023-08-20T01:42:52;46.30;;;27.48;;
26946;SDS011;14501;52.282;10.560;2023-08-20T01:45:18;43.33;;;27.70;;
26946;SDS011;14501;52.282;10.560;2023-08-20T01:47:43;45.10;;;27.92;;
26946;SDS011;14501;52.282;10.560;2023-08-20T01:50:09;39.00;;;27.67;;
26946;SDS011;14501;52.282;10.560;2023-08-20T01:52:35;41.65;;;26.92;;
26946;SDS011;14501;52.282;10.560;2023-08-20T01:55:01;46.00;;;25.67;;
26946;SDS011;14501;52.282;10.560;2023-08-20T01:57:26;43.35;;;25.60;;
26946;SDS011;14501;52.282;10.560;2023-08-20T01:59:52;36.60;;;23.80;;
26946;SDS011;14501;52.282;10.560;2023-08-20T02:02:18;33.78;;;23.15;;
26946;SDS011;14501;52.282;10.560;2023-08-20T02:04:43;35.00;;;24.75;;
26946;SDS011;14501;52.282;10.560;2023-08-20T02:07:09;37.72;;;23.98;;
26946;SDS011;14501;52.282;10.560;2023-08-20T02:09:35;43.58;;;23.80;;
26946;SDS011;14501;52.282;10.560;2023-08-20T02:12:00;37.08;;;24.13;;
26946;SDS011;14501;52.282;10.560;2023-08-20T02:14:26;40.97;;;26.02;;
26946;SDS011;14501;52.282;10.560;2023-08-20T02:16:53;42.97;;;26.02;;
26946;SDS011;14501;52.282;10.560;2023-08-20T02:19:18;38.08;;;26.25;;
26946;SDS011;14501;52.282;10.560;2023-08-20T02:21:44;37.45;;;25.75;;
26946;SDS011;14501;52.282;10.560;2023-08-20T02:24:09;37.92;;;24.60;;
26946;SDS011;14501;52.282;10.560;2023-08-20T02:26:35;39.28;;;25.55;;
26946;SDS011;14501;52.282;10.560;2023-08-20T02:29:01;37.95;;;25.58;;
26946;SDS011;14501;52.282;10.560;2023-08-20T02:31:27;40.95;;;26.17;;
26946;SDS011;14501;52.282;10.560;2023-08-20T02:33:53;38.42;;;25.77;;
26946;SDS011;14501;52.282;10.560;2023-08-20T02:36:18;42.30;;;27.85;;
26946;SDS011;14501;52.282;10.560;2023-08-20T02:38:44;49.45;;;27.00;;
26946;SDS011;14501;52.282;10.560;2023-08-20T02:41:10;40.92;;;27.00;;
26946;SDS011;14501;52.282;10.560;2023-08-20T02:43:37;46.17;;;28.02;;
26946;SDS011;14501;52.282;10.560;2023-08-20T02:46:02;45.08;;;27.38;;
26946;SDS011;14501;52.282;10.560;2023-08-20T02:48:29;47.28;;;27.88;;
26946;SDS011;14501;52.282;10.560;2023-08-20T02:50:55;39.33;;;26.00;;
26946;SDS011;14501;52.282;10.560;2023-08-20T02:53:21;43.42;;;26.42;;
26946;SDS011;14501;52.282;10.560;2023-08-20T02:55:47;45.70;;;25.55;;
26946;SDS011;14501;52.282;10.560;2023-08-20T02:58:13;44.58;;;25.45;;
26946;SDS011;14501;52.282;10.560;2023-08-20T03:00:39;42.78;;;26.83;;
26946;SDS011;14501;52.282;10.560;2023-08-20T03:03:05;44.65;;;26.58;;
26946;SDS011;14501;52.282;10.560;2023-08-20T03:05:32;47.25;;;27.63;;
26946;SDS011;14501;52.282;10.560;2023-08-20T03:07:58;45.53;;;27.08;;
26946;SDS011;14501;52.282;10.560;2023-08-20T03:10:24;46.05;;;26.90;;
26946;SDS011;14501;52.282;10.560;2023-08-20T03:12:50;51.05;;;28.35;;
26946;SDS011;14501;52.282;10.560;2023-08-20T03:15:16;45.63;;;27.88;;
26946;SDS011;14501;52.282;10.560;2023-08-20T03:17:42;42.08;;;27.98;;
26946;SDS011;14501;52.282;10.560;2023-08-20T03:20:07;47.08;;;28.38;;
26946;SDS011;14501;52.282;10.560;2023-08-20T03:22:35;49.35;;;28.55;;
26946;SDS011;14501;52.282;10.560;2023-08-20T03:25:02;49.03;;;29.02;;
26946;SDS011;14501;52.282;10.560;2023-08-20T03:27:27;50.80;;;29.92;;
26946;SDS011;14501;52.282;10.560;2023-08-20T03:29:53;48.22;;;29.58;;
26946;SDS011;14501;52.282;10.560;2023-08-20T03:32:19;50.10;;;27.25;;
26946;SDS011;14501;52.282;10.560;2023-08-20T03:34:45;51.25;;;28.45;;
26946;SDS011;14501;52.282;10.560;2023-08-20T03:37:10;47.67;;;27.92;;
26946;SDS011;14501;52.282;10.560;2023-08-20T03:39:36;43.50;;;26.90;;
26946;SDS011;14501;52.282;10.560;2023-08-20T03:42:02;53.55;;;29.73;;
26946;SDS011;14501;52.282;10.560;2023-08-20T03:44:28;53.08;;;30.65;;
26946;SDS011;14501;52.282;10.560;2023-08-20T03:46:54;52.53;;;29.00;;
26946;SDS011;14501;52.282;10.560;2023-08-20T03:49:20;48.58;;;28.50;;
26946;SDS011;14501;52.282;10.560;2023-08-20T03:51:47;50.10;;;29.38;;
26946;SDS011;14501;52.282;10.560;2023-08-20T03:54:12;55.92;;;30.67;;
26946;SDS011;14501;52.282;10.560;2023-08-20T03:56:38;60.97;;;31.65;;
26946;SDS011;14501;52.282;10.560;2023-08-20T03:59:04;66.85;;;30.90;;
26946;SDS011;14501;52.282;10.560;2023-08-20T04:01:30;63.42;;;31.40;;
26946;SDS011;14501;52.282;10.560;2023-08-20T04:03:56;67.65;;;33.35;;
26946;SDS011;14501;52.282;10.560;2023-08-20T04:06:22;57.20;;;31.33;;
26946;SDS011;14501;52.282;10.560;2023-08-20T04:08:47;60.20;;;31.83;;
26946;SDS011;14501;52.282;10.560;2023-08-20T04:11:14;58.33;;;30.27;;
26946;SDS011;14501;52.282;10.560;2023-08-20T04:13:39;61.83;;;31.00;;
26946;SDS011;14501;52.282;10.560;2023-08-20T04:16:08;58.25;;;31.92;;
26946;SDS011;14501;52.282;10.560;2023-08-20T04:18:34;60.88;;;31.95;;
26946;SDS011;14501;52.282;10.560;2023-08-20T04:21:00;64.70;;;32.17;;
26946;SDS011;14501;52.282;10.560;2023-08-20T04:23:25;60.00;;;30.38;;
26946;SDS011;14501;52.282;10.560;2023-08-20T04:25:51;65.82;;;32.63;;
26946;SDS011;14501;52.282;10.560;2023-08-20T04:28:17;58.78;;;32.67;;
26946;SDS011;14501;52.282;10.560;2023-08-20T04:30:42;70.22;;;33.28;;
26946;SDS011;14501;52.282;10.560;2023-08-20T04:33:08;68.53;;;33.10;;
26946;SDS011;14501;52.282;10.560;2023-08-20T04:35:34;73.47;;;35.83;;
26946;SDS011;14501;52.282;10.560;2023-08-20T04:38:00;70.32;;;35.03;;
26946;SDS011;14501;52.282;10.560;2023-08-20T04:40:27;65.50;;;33.60;;
26946;SDS011;14501;52.282;10.560;2023-08-20T04:42:52;71.03;;;34.25;;
26946;SDS011;14501;52.282;10.560;2023-08-20T04:45:18;67.82;;;34.95;;
26946;SDS011;14501;52.282;10.560;2023-08-20T04:47:44;62.60;;;32.88;;
26946;SDS011;14501;52.282;10.560;2023-08-20T04:50:13;64.22;;;33.58;;
26946;SDS011;14501;52.282;10.560;2023-08-20T04:52:39;76.18;;;34.75;;
26946;SDS011;14501;52.282;10.560;2023-08-20T04:55:05;64.82;;;35.25;;
26946;SDS011;14501;52.282;10.560;2023-08-20T04:57:32;66.05;;;35.45;;
26946;SDS011;14501;52.282;10.560;2023-08-20T04:59:58;64.70;;;34.97;;
26946;SDS011;14501;52.282;10.560;2023-08-20T05:02:23;59.80;;;33.33;;
26946;SDS011;14501;52.282;10.560;2023-08-20T05:04:49;58.47;;;32.78;;
26946;SDS011;14501;52.282;10.560;2023-08-20T05:07:15;54.38;;;31.50;;
26946;SDS011;14501;52.282;10.560;2023-08-20T05:09:40;50.53;;;28.42;;
26946;SDS011;14501;52.282;10.560;2023-08-20T05:12:06;42.53;;;27.25;;
26946;SDS011;14501;52.282;10.560;2023-08-20T05:14:32;35.95;;;24.40;;
26946;SDS011;14501;52.282;10.560;2023-08-20T05:16:58;38.13;;;24.45;;
26946;SDS011;14501;52.282;10.560;2023-08-20T05:19:23;34.80;;;24.08;;
26946;SDS011;14501;52.282;10.560;2023-08-20T05:21:49;37.33;;;20.85;;
26946;SDS011;14501;52.282;10.560;2023-08-20T05:24:14;31.77;;;22.25;;
26946;SDS011;14501;52.282;10.560;2023-08-20T05:26:40;26.17;;;21.08;;
26946;SDS011;14501;52.282;10.560;2023-08-20T05:29:06;31.30;;;20.83;;
26946;SDS011;14501;52.282;10.560;2023-08-20T05:31:31;27.42;;;21.35;;
26946;SDS011;14501;52.282;10.560;2023-08-20T05:33:57;33.78;;;21.58;;
26946;SDS011;14501;52.282;10.560;2023-08-20T05:36:23;31.13;;;20.95;;
26946;SDS011;14501;52.282;10.560;2023-08-20T05:38:49;29.58;;;21.00;;
26946;SDS011;14501;52.282;10.560;2023-08-20T05:41:14;29.13;;;20.38;;
26946;SDS011;14501;52.282;10.560;2023-08-20T05:43:40;25.20;;;19.33;;
26946;SDS011;14501;52.282;10.560;2023-08-20T05:46:06;24.80;;;19.13;;
26946;SDS011;14501;52.282;10.560;2023-08-20T05:48:31;26.13;;;18.70;;
26946;SDS011;14501;52.282;10.560;2023-08-20T05:50:57;21.98;;;17.73;;
26946;SDS011;14501;52.282;10.560;2023-08-20T05:53:22;22.55;;;17.15;;
26946;SDS011;14501;52.282;10.560;2023-08-20T05:55:48;21.15;;;16.55;;
26946;SDS011;14501;52.282;10.560;2023-08-20T05:58:14;24.50;;;17.13;;
26946;SDS011;14501;52.282;10.560;2023-08-20T06:00:39;19.77;;;15.25;;
26946;SDS011;14501;52.282;10.560;2023-08-20T06:03:06;21.40;;;14.68;;
26946;SDS011;14501;52.282;10.560;2023-08-20T06:05:34;19.17;;;12.85;;
26946;SDS011;14501;52.282;10.560;2023-08-20T06:07:59;15.95;;;12.52;;
26946;SDS011;14501;52.282;10.560;2023-08-20T06:10:25;17.70;;;12.20;;
26946;SDS011;14501;52.282;10.560;2023-08-20T06:12:51;16.85;;;11.30;;
26946;SDS011;14501;52.282;10.560;2023-08-20T06:15:17;13.93;;;10.07;;
26946;SDS011;14501;52.282;10.560;2023-08-20T06:17:43;12.75;;;9.10;;
26946;SDS011;14501;52.282;10.560;2023-08-20T06:20:09;12.07;;;8.18;;
26946;SDS011;14501;52.282;10.560;2023-08-20T06:22:36;15.10;;;9.73;;
26946;SDS011;14501;52.282;10.560;2023-08-20T06:25:05;12.38;;;8.75;;
26946;SDS011;14501;52.282;10.560;2023-08-20T06:27:31;13.20;;;8.88;;
26946;SDS011;14501;52.282;10.560;2023-08-20T06:29:56;12.60;;;8.23;;
26946;SDS011;14501;52.282;10.560;2023-08-20T06:32:23;14.82;;;8.27;;
26946;SDS011;14501;52.282;10.560;2023-08-20T06:34:49;10.68;;;7.75;;
26946;SDS011;14501;52.282;10.560;2023-08-20T06:37:14;8.45;;;5.82;;
26946;SDS011;14501;52.282;10.560;2023-08-20T06:39:40;8.98;;;5.82;;
26946;SDS011;14501;52.282;10.560;2023-08-20T06:42:06;9.13;;;6.28;;
26946;SDS011;14501;52.282;10.560;2023-08-20T06:44:31;13.35;;;6.82;;
26946;SDS011;14501;52.282;10.560;2023-08-20T06:46:57;11.50;;;6.43;;
26946;SDS011;14501;52.282;10.560;2023-08-20T06:49:22;10.20;;;5.95;;
26946;SDS011;14501;52.282;10.560;2023-08-20T06:51:48;10.05;;;5.85;;
26946;SDS011;14501;52.282;10.560;2023-08-20T06:54:14;11.48;;;6.60;;
26946;SDS011;14501;52.282;10.560;2023-08-20T06:56:41;9.60;;;5.53;;
26946;SDS011;14501;52.282;10.560;2023-08-20T06:59:07;5.68;;;5.00;;
26946;SDS011;14501;52.282;10.560;2023-08-20T07:01:32;6.72;;;5.10;;
26946;SDS011;14501;52.282;10.560;2023-08-20T07:03:58;5.60;;;4.63;;
26946;SDS011;14501;52.282;10.560;2023-08-20T07:06:24;7.32;;;4.50;;
26946;SDS011;14501;52.282;10.560;2023-08-20T07:08:50;8.07;;;5.00;;
26946;SDS011;14501;52.282;10.560;2023-08-20T07:11:15;9.52;;;5.80;;
26946;SDS011;14501;52.282;10.560;2023-08-20T07:13:41;7.47;;;6.35;;
26946;SDS011;14501;52.282;10.560;2023-08-20T07:16:07;10.35;;;5.45;;
26946;SDS011;14501;52.282;10.560;2023-08-20T07:18:32;9.30;;;5.80;;
26946;SDS011;14501;52.282;10.560;2023-08-20T07:20:58;7.78;;;5.10;;
26946;SDS011;14501;52.282;10.560;2023-08-20T07:23:24;6.43;;;4.80;;
26946;SDS011;14501;52.282;10.560;2023-08-20T07:25:49;6.55;;;4.65;;
26946;SDS011;14501;52.282;10.560;2023-08-20T07:28:17;8.70;;;5.22;;
26946;SDS011;14501;52.282;10.560;2023-08-20T07:30:51;7.10;;;4.45;;
26946;SDS011;14501;52.282;10.560;2023-08-20T07:33:17;6.90;;;4.40;;
26946;SDS011;14501;52.282;10.560;2023-08-20T07:35:42;8.52;;;4.10;;
26946;SDS011;14501;52.282;10.560;2023-08-20T07:38:08;5.50;;;3.97;;
26946;SDS011;14501;52.282;10.560;2023-08-20T07:40:34;7.20;;;4.35;;
26946;SDS011;14501;52.282;10.560;2023-08-20T07:42:59;5.35;;;4.40;;
26946;SDS011;14501;52.282;10.560;2023-08-20T07:45:25;5.53;;;4.22;;
26946;SDS011;14501;52.282;10.560;2023-08-20T07:47:50;4.85;;;3.53;;
26946;SDS011;14501;52.282;10.560;2023-08-20T07:50:16;6.57;;;3.80;;
26946;SDS011;14501;52.282;10.560;2023-08-20T07:52:41;7.10;;;3.78;;
26946;SDS011;14501;52.282;10.560;2023-08-20T07:55:07;5.13;;;3.75;;
26946;SDS011;14501;52.282;10.560;2023-08-20T07:57:33;5.47;;;3.55;;
26946;SDS011;14501;52.282;10.560;2023-08-20T07:59:58;6.43;;;3.65;;
26946;SDS011;14501;52.282;10.560;2023-08-20T08:02:24;6.82;;;3.75;;
26946;SDS011;14501;52.282;10.560;2023-08-20T08:04:49;5.82;;;3.72;;
26946;SDS011;14501;52.282;10.560;2023-08-20T08:07:15;5.20;;;3.42;;
26946;SDS011;14501;52.282;10.560;2023-08-20T08:09:41;4.05;;;3.03;;
26946;SDS011;14501;52.282;10.560;2023-08-20T08:12:06;4.70;;;3.17;;
26946;SDS011;14501;52.282;10.560;2023-08-20T08:14:32;6.53;;;3.53;;
26946;SDS011;14501;52.282;10.560;2023-08-20T08:16:58;5.55;;;3.65;;
26946;SDS011;14501;52.282;10.560;2023-08-20T08:19:23;4.85;;;3.13;;
26946;SDS011;14501;52.282;10.560;2023-08-20T08:21:49;5.63;;;3.22;;
26946;SDS011;14501;52.282;10.560;2023-08-20T08:24:14;4.60;;;3.05;;
26946;SDS011;14501;52.282;10.560;2023-08-20T08:26:40;6.75;;;3.30;;
26946;SDS011;14501;52.282;10.560;2023-08-20T08:29:06;4.25;;;3.38;;
26946;SDS011;14501;52.282;10.560;2023-08-20T08:31:33;5.82;;;3.35;;
26946;SDS011;14501;52.282;10.560;2023-08-20T08:34:00;5.25;;;3.03;;
26946;SDS011;14501;52.282;10.560;2023-08-20T08:36:26;5.43;;;3.20;;
26946;SDS011;14501;52.282;10.560;2023-08-20T08:38:52;4.80;;;2.88;;
26946;SDS011;14501;52.282;10.560;2023-08-20T08:41:19;7.93;;;3.30;;
26946;SDS011;14501;52.282;10.560;2023-08-20T08:43:48;4.88;;;3.42;;
26946;SDS011;14501;52.282;10.560;2023-08-20T08:46:15;4.63;;;3.42;;
26946;SDS011;14501;52.282;10.560;2023-08-20T08:48:42;4.03;;;3.50;;
26946;SDS011;14501;52.282;10.560;2023-08-20T08:51:08;5.57;;;3.42;;
26946;SDS011;14501;52.282;10.560;2023-08-20T08:53:35;4.32;;;3.15;;
26946;SDS011;14501;52.282;10.560;2023-08-20T08:56:01;4.65;;;3.47;;
26946;SDS011;14501;52.282;10.560;2023-08-20T08:58:27;4.53;;;3.60;;
26946;SDS011;14501;52.282;10.560;2023-08-20T09:00:53;5.68;;;3.35;;
26946;SDS011;14501;52.282;10.560;2023-08-20T09:03:19;4.78;;;3.38;;
26946;SDS011;14501;52.282;10.560;2023-08-20T09:05:46;6.50;;;3.58;;
26946;SDS011;14501;52.282;10.560;2023-08-20T09:08:20;5.22;;;3.47;;
26946;SDS011;14501;52.282;10.560;2023-08-20T09:10:49;4.82;;;3.05;;
26946;SDS011;14501;52.282;10.560;2023-08-20T09:13:15;4.38;;;3.10;;
26946;SDS011;14501;52.282;10.560;2023-08-20T09:15:41;5.97;;;3.03;;
26946;SDS011;14501;52.282;10.560;2023-08-20T09:18:08;6.28;;;3.08;;
26946;SDS011;14501;52.282;10.560;2023-08-20T09:20:35;3.85;;;2.45;;
26946;SDS011;14501;52.282;10.560;2023-08-20T09:23:01;4.35;;;2.78;;
26946;SDS011;14501;52.282;10.560;2023-08-20T09:25:27;3.80;;;2.47;;
26946;SDS011;14501;52.282;10.560;2023-08-20T09:27:53;5.57;;;2.80;;
26946;SDS011;14501;52.282;10.560;2023-08-20T09:30:19;4.15;;;2.40;;
26946;SDS011;14501;52.282;10.560;2023-08-20T09:32:45;3.17;;;2.40;;
26946;SDS011;14501;52.282;10.560;2023-08-20T09:35:32;6.32;;;2.80;;
26946;SDS011;14501;52.282;10.560;2023-08-20T09:37:58;4.97;;;2.13;;
26946;SDS011;14501;52.282;10.560;2023-08-20T09:40:25;5.68;;;2.53;;
26946;SDS011;14501;52.282;10.560;2023-08-20T09:42:52;3.42;;;2.40;;
26946;SDS011;14501;52.282;10.560;2023-08-20T09:45:19;4.40;;;2.50;;
26946;SDS011;14501;52.282;10.560;2023-08-20T09:47:47;3.88;;;2.63;;
26946;SDS011;14501;52.282;10.560;2023-08-20T09:50:14;5.35;;;2.40;;
26946;SDS011;14501;52.282;10.560;2023-08-20T09:52:45;4.40;;;2.45;;
26946;SDS011;14501;52.282;10.560;2023-08-20T09:55:21;5.68;;;2.55;;
26946;SDS011;14501;52.282;10.560;2023-08-20T09:57:47;4.90;;;2.22;;
26946;SDS011;14501;52.282;10.560;2023-08-20T10:00:13;3.20;;;2.13;;
26946;SDS011;14501;52.282;10.560;2023-08-20T10:02:40;6.82;;;2.80;;
26946;SDS011;14501;52.282;10.560;2023-08-20T10:05:07;3.75;;;2.25;;
26946;SDS011;14501;52.282;10.560;2023-08-20T10:07:34;4.57;;;2.50;;
26946;SDS011;14501;52.282;10.560;2023-08-20T10:10:01;6.38;;;2.30;;
26946;SDS011;14501;52.282;10.560;2023-08-20T10:12:28;4.70;;;2.40;;
26946;SDS011;14501;52.282;10.560;2023-08-20T10:14:57;3.78;;;2.20;;
26946;SDS011;14501;52.282;10.560;2023-08-20T10:17:24;2.90;;;2.05;;
26946;SDS011;14501;52.282;10.560;2023-08-20T10:19:53;6.07;;;2.08;;
26946;SDS011;14501;52.282;10.560;2023-08-20T10:22:19;5.15;;;2.47;;
26946;SDS011;14501;52.282;10.560;2023-08-20T10:24:49;3.70;;;2.00;;
26946;SDS011;14501;52.282;10.560;2023-08-20T10:27:32;5.10;;;2.03;;
26946;SDS011;14501;52.282;10.560;2023-08-20T10:30:09;2.50;;;1.98;;
26946;SDS011;14501;52.282;10.560;2023-08-20T10:32:47;5.97;;;2.10;;
26946;SDS011;14501;52.282;10.560;2023-08-20T10:35:27;4.10;;;2.28;;
26946;SDS011;14501;52.282;10.560;2023-08-20T10:38:15;4.60;;;2.40;;
26946;SDS011;14501;52.282;10.560;2023-08-20T10:40:53;5.55;;;2.40;;
26946;SDS011;14501;52.282;10.560;2023-08-20T10:43:40;4.40;;;1.88;;
26946;SDS011;14501;52.282;10.560;2023-08-20T10:46:20;3.80;;;2.47;;
26946;SDS011;14501;52.282;10.560;2023-08-20T10:48:53;3.45;;;2.20;;
26946;SDS011;14501;52.282;10.560;2023-08-20T11:01:47;5.82;;;2.40;;
26946;SDS011;14501;52.282;10.560;2023-08-20T11:04:18;3.35;;;2.63;;
26946;SDS011;14501;52.282;10.560;2023-08-20T11:06:46;3.08;;;2.10;;
26946;SDS011;14501;52.282;10.560;2023-08-20T11:09:14;4.10;;;2.15;;
26946;SDS011;14501;52.282;10.560;2023-08-20T11:11:40;5.00;;;2.30;;
26946;SDS011;14501;52.282;10.560;2023-08-20T11:14:07;6.40;;;2.03;;
26946;SDS011;14501;52.282;10.560;2023-08-20T11:16:39;2.92;;;1.70;;
26946;SDS011;14501;52.282;10.560;2023-08-20T11:19:05;4.65;;;2.20;;
26946;SDS011;14501;52.282;10.560;2023-08-20T11:21:34;5.18;;;1.90;;
26946;SDS011;14501;52.282;10.560;2023-08-20T11:24:03;4.80;;;2.20;;
26946;SDS011;14501;52.282;10.560;2023-08-20T11:26:29;3.03;;;2.35;;
26946;SDS011;14501;52.282;10.560;2023-08-20T11:28:55;3.85;;;2.03;;
26946;SDS011;14501;52.282;10.560;2023-08-20T11:31:21;5.00;;;2.42;;
26946;SDS011;14501;52.282;10.560;2023-08-20T11:33:49;4.05;;;2.22;;
26946;SDS011;14501;52.282;10.560;2023-08-20T11:36:19;3.38;;;2.17;;
26946;SDS011;14501;52.282;10.560;2023-08-20T11:38:51;4.30;;;2.15;;
26946;SDS011;14501;52.282;10.560;2023-08-20T11:41:21;3.53;;;2.13;;
26946;SDS011;14501;52.282;10.560;2023-08-20T11:43:48;3.20;;;2.28;;
26946;SDS011;14501;52.282;10.560;2023-08-20T11:46:14;3.97;;;2.58;;
26946;SDS011;14501;52.282;10.560;2023-08-20T11:51:30;3.30;;;2.45;;
26946;SDS011;14501;52.282;10.560;2023-08-20T11:54:01;4.70;;;2.53;;
26946;SDS011;14501;52.282;10.560;2023-08-20T11:56:28;4.15;;;2.55;;
26946;SDS011;14501;52.282;10.560;2023-08-20T11:58:58;2.90;;;2.60;;
26946;SDS011;14501;52.282;10.560;2023-08-20T12:01:24;5.10;;;2.90;;
26946;SDS011;14501;52.282;10.560;2023-08-20T12:03:50;4.43;;;2.92;;
26946;SDS011;14501;52.282;10.560;2023-08-20T12:06:19;4.93;;;2.70;;
26946;SDS011;14501;52.282;10.560;2023-08-20T12:08:46;6.28;;;2.70;;
26946;SDS011;14501;52.282;10.560;2023-08-20T12:11:12;4.95;;;2.72;;
26946;SDS011;14501;52.282;10.560;2023-08-20T12:13:38;5.10;;;2.70;;
26946;SDS011;14501;52.282;10.560;2023-08-20T12:16:05;7.60;;;3.33;;
26946;SDS011;14501;52.282;10.560;2023-08-20T12:18:30;8.63;;;2.80;;
26946;SDS011;14501;52.282;10.560;2023-08-20T12:20:56;7.13;;;3.20;;
26946;SDS011;14501;52.282;10.560;2023-08-20T12:23:22;4.50;;;2.78;;
26946;SDS011;14501;52.282;10.560;2023-08-20T12:25:51;7.03;;;3.20;;
26946;SDS011;14501;52.282;10.560;2023-08-20T12:28:17;4.57;;;2.67;;
26946;SDS011;14501;52.282;10.560;2023-08-20T12:30:43;5.88;;;2.83;;
26946;SDS011;14501;52.282;10.560;2023-08-20T12:33:09;4.28;;;2.80;;
26946;SDS011;14501;52.282;10.560;2023-08-20T12:35:36;5.38;;;3.10;;
26946;SDS011;14501;52.282;10.560;2023-08-20T12:38:01;5.47;;;2.80;;
26946;SDS011;14501;52.282;10.560;2023-08-20T12:40:28;11.82;;;2.85;;
26946;SDS011;14501;52.282;10.560;2023-08-20T12:42:54;6.47;;;2.60;;
26946;SDS011;14501;52.282;10.560;2023-08-20T12:45:19;6.20;;;2.75;;
26946;SDS011;14501;52.282;10.560;2023-08-20T12:47:45;4.85;;;2.97;;
26946;SDS011;14501;52.282;10.560;2023-08-20T12:50:11;4.22;;;3.13;;
26946;SDS011;14501;52.282;10.560;2023-08-20T12:52:38;4.32;;;2.83;;
26946;SDS011;14501;52.282;10.560;2023-08-20T12:55:04;4.90;;;2.72;;
26946;SDS011;14501;52.282;10.560;2023-08-20T12:57:30;4.40;;;2.60;;
26946;SDS011;14501;52.282;10.560;2023-08-20T12:59:58;4.47;;;2.70;;
26946;SDS011;14501;52.282;10.560;2023-08-20T13:02:24;5.43;;;2.83;;
26946;SDS011;14501;52.282;10.560;2023-08-20T13:04:50;3.65;;;2.10;;
26946;SDS011;14501;52.282;10.560;2023-08-20T13:07:16;4.82;;;3.08;;
26946;SDS011;14501;52.282;10.560;2023-08-20T13:09:42;4.80;;;2.63;;
26946;SDS011;14501;52.282;10.560;2023-08-20T13:12:09;6.93;;;3.08;;
26946;SDS011;14501;52.282;10.560;2023-08-20T13:14:37;5.57;;;3.08;;
26946;SDS011;14501;52.282;10.560;2023-08-20T13:17:04;3.92;;;2.85;;
26946;SDS011;14501;52.282;10.560;2023-08-20T13:19:30;4.47;;;2.50;;
26946;SDS011;14501;52.282;10.560;2023-08-20T13:21:56;6.68;;;3.13;;
26946;SDS011;14501;52.282;10.560;2023-08-20T13:24:21;4.47;;;2.75;;
26946;SDS011;14501;52.282;10.560;2023-08-20T13:26:47;3.38;;;2.88;;
26946;SDS011;14501;52.282;10.560;2023-08-20T13:29:13;5.63;;;2.95;;
26946;SDS011;14501;52.282;10.560;2023-08-20T13:31:38;4.28;;;3.00;;
26946;SDS011;14501;52.282;10.560;2023-08-20T13:34:04;6.75;;;2.95;;
26946;SDS011;14501;52.282;10.560;2023-08-20T13:36:29;4.28;;;2.92;;
26946;SDS011;14501;52.282;10.560;2023-08-20T13:38:55;5.25;;;2.85;;
26946;SDS011;14501;52.282;10.560;2023-08-20T13:41:21;4.30;;;3.10;;
26946;SDS011;14501;52.282;10.560;2023-08-20T13:43:46;5.38;;;2.78;;
26946;SDS011;14501;52.282;10.560;2023-08-20T13:46:12;2.90;;;2.38;;
26946;SDS011;14501;52.282;10.560;2023-08-20T13:48:38;5.75;;;2.78;;
26946;SDS011;14501;52.282;10.560;2023-08-20T13:51:03;3.47;;;2.75;;
26946;SDS011;14501;52.282;10.560;2023-08-20T13:53:29;3.33;;;2.63;;
26946;SDS011;14501;52.282;10.560;2023-08-20T13:55:54;4.32;;;2.88;;
26946;SDS011;14501;52.282;10.560;2023-08-20T13:58:20;3.15;;;2.55;;
26946;SDS011;14501;52.282;10.560;2023-08-20T14:00:46;3.72;;;2.58;;
26946;SDS011;14501;52.282;10.560;2023-08-20T14:03:11;4.63;;;2.63;;
26946;SDS011;14501;52.282;10.560;2023-08-20T14:05:37;5.20;;;2.90;;
26946;SDS011;14501;52.282;10.560;2023-08-20T14:08:03;4.80;;;2.65;;
26946;SDS011;14501;52.282;10.560;2023-08-20T14:10:28;4.45;;;2.97;;
26946;SDS011;14501;52.282;10.560;2023-08-20T14:12:54;5.07;;;2.58;;
26946;SDS011;14501;52.282;10.560;2023-08-20T14:15:20;5.65;;;3.00;;
26946;SDS011;14501;52.282;10.560;2023-08-20T14:17:45;3.90;;;2.58;;
26946;SDS011;14501;52.282;10.560;2023-08-20T14:20:11;4.53;;;3.10;;
26946;SDS011;14501;52.282;10.560;2023-08-20T14:22:37;5.13;;;2.60;;
26946;SDS011;14501;52.282;10.560;2023-08-20T14:25:02;4.57;;;2.47;;
26946;SDS011;14501;52.282;10.560;2023-08-20T14:27:28;7.30;;;2.88;;
26946;SDS011;14501;52.282;10.560;2023-08-20T14:29:54;4.93;;;2.95;;
26946;SDS011;14501;52.282;10.560;2023-08-20T14:32:20;5.35;;;3.03;;
26946;SDS011;14501;52.282;10.560;2023-08-20T14:34:45;2.72;;;2.53;;
26946;SDS011;14501;52.282;10.560;2023-08-20T14:37:11;5.93;;;2.63;;
26946;SDS011;14501;52.282;10.560;2023-08-20T14:39:38;4.32;;;2.75;;